Time;durP1;ratioP1;P1;durP2;ratioP2;P2;SDS_P1;SDS_P2;PMS_P1;PMS_P2;Temp;Humidity;BMP_temperature;BMP_pressure;BME280_temperature;BME280_humidity;BME280_pressure;Samples;Min_cycle;Max_cycle;Signal;HPM_P1;HPM_P2
2022/10/19 00:01:14;;;;;;;9.25;1.70;;;10.80;99.90;;;;;;5075291;28;20042;-79
2022/10/19 00:03:41;;;;;;;11.25;1.63;;;10.80;99.90;;;;;;5055783;28;20063;-80
2022/10/19 00:06:32;;;;;;;8.07;2.03;;;10.80;99.90;;;;;;5076305;28;20072;-80
2022/10/19 00:08:59;;;;;;;8.40;1.67;;;10.80;99.90;;;;;;4989661;28;20051;-79
2022/10/19 00:11:26;;;;;;;8.98;1.90;;;10.80;99.90;;;;;;4957670;28;20082;-79
2022/10/19 00:13:53;;;;;;;8.98;1.88;;;10.80;99.90;;;;;;4991890;28;20073;-80
2022/10/19 00:16:19;;;;;;;11.82;2.33;;;10.90;99.90;;;;;;4976521;28;20548;-79
2022/10/19 00:18:45;;;;;;;13.35;2.10;;;10.90;99.90;;;;;;4975701;28;20227;-83
2022/10/19 00:21:15;;;;;;;12.02;2.10;;;10.90;99.90;;;;;;4976549;28;20081;-82
2022/10/19 00:23:41;;;;;;;12.15;2.15;;;10.80;99.90;;;;;;4957246;28;20115;-81
2022/10/19 00:26:08;;;;;;;12.85;2.13;;;10.90;99.90;;;;;;4976504;28;20129;-80
2022/10/19 00:28:34;;;;;;;10.13;2.25;;;10.80;99.90;;;;;;4974729;28;20046;-79
2022/10/19 00:31:05;;;;;;;11.23;2.55;;;10.80;99.90;;;;;;4977373;28;20449;-81
2022/10/19 00:33:31;;;;;;;11.80;2.58;;;10.90;99.90;;;;;;4958958;28;20069;-79
2022/10/19 00:35:57;;;;;;;10.02;2.45;;;10.80;99.90;;;;;;4964035;28;20050;-79
2022/10/19 00:38:23;;;;;;;10.82;2.55;;;10.90;99.90;;;;;;4980807;28;20050;-79
2022/10/19 00:40:49;;;;;;;13.88;2.55;;;10.80;99.90;;;;;;4976378;28;20046;-79
2022/10/19 00:43:16;;;;;;;6.68;1.70;;;10.90;99.90;;;;;;4959650;28;20125;-79
2022/10/19 00:45:42;;;;;;;9.77;1.80;;;10.90;99.90;;;;;;5016197;28;20602;-81
2022/10/19 00:48:11;;;;;;;14.07;2.00;;;11.00;99.90;;;;;;5055491;28;20208;-78
2022/10/19 00:50:38;;;;;;;9.60;1.80;;;11.10;99.90;;;;;;5076425;28;20035;-81
2022/10/19 00:53:04;;;;;;;14.05;1.70;;;11.30;99.90;;;;;;5039347;28;20052;-83
2022/10/19 00:55:31;;;;;;;10.75;1.58;;;11.40;99.90;;;;;;5059440;28;20040;-77
2022/10/19 00:57:57;;;;;;;12.95;1.92;;;11.40;99.90;;;;;;5034502;28;20036;-79
2022/10/19 01:00:22;;;;;;;16.25;1.58;;;11.40;99.90;;;;;;5063866;28;20136;-78
2022/10/19 01:02:48;;;;;;;17.75;1.98;;;11.40;99.90;;;;;;5074685;28;20062;-79
2022/10/19 01:05:15;;;;;;;7.15;1.30;;;11.40;99.90;;;;;;5058435;28;20368;-77
2022/10/19 01:07:40;;;;;;;9.23;1.52;;;11.50;99.90;;;;;;5056810;28;20121;-79
2022/10/19 01:10:07;;;;;;;8.15;1.58;;;11.40;99.90;;;;;;5056356;28;20091;-80
2022/10/19 01:13:04;;;;;;;10.38;1.40;;;11.40;99.90;;;;;;5038627;28;20048;-81
2022/10/19 01:15:59;;;;;;;10.43;1.88;;;11.40;99.90;;;;;;5060634;28;20048;-80
2022/10/19 01:18:44;;;;;;;10.00;1.57;;;11.40;99.90;;;;;;5055854;28;20093;-78
2022/10/19 01:21:26;;;;;;;8.27;1.48;;;11.50;99.90;;;;;;5075146;28;20048;-82
2022/10/19 01:24:36;;;;;;;12.00;1.63;;;11.40;99.90;;;;;;5087536;28;20043;-78
2022/10/19 01:27:41;;;;;;;13.90;1.48;;;11.40;99.90;;;;;;4978810;28;20056;-82
2022/10/19 01:30:25;;;;;;;16.02;1.50;;;11.30;99.90;;;;;;4954355;28;20050;-77
2022/10/19 01:33:39;;;;;;;10.37;1.43;;;11.30;99.90;;;;;;4953977;28;20063;-80
2022/10/19 01:36:13;;;;;;;11.43;1.88;;;11.40;99.90;;;;;;4904173;29;20069;-79
2022/10/19 01:38:49;;;;;;;13.02;1.85;;;11.30;99.90;;;;;;4897261;29;20056;-80
2022/10/19 01:41:35;;;;;;;8.52;1.20;;;11.30;99.90;;;;;;4877110;29;20438;-80
2022/10/19 01:44:35;;;;;;;8.18;1.25;;;11.30;99.90;;;;;;4896056;29;20136;-77
2022/10/19 01:47:09;;;;;;;11.48;1.35;;;11.20;99.90;;;;;;4833400;29;20122;-80
2022/10/19 01:49:42;;;;;;;13.93;1.60;;;11.20;99.90;;;;;;4824586;29;20081;-82
2022/10/19 01:52:12;;;;;;;8.30;1.55;;;11.30;99.90;;;;;;4839191;29;20463;-80
2022/10/19 01:54:43;;;;;;;9.27;1.67;;;11.30;99.90;;;;;;4807446;29;20403;-82
2022/10/19 01:57:12;;;;;;;14.32;2.20;;;11.30;99.90;;;;;;4828821;29;20095;-79
2022/10/19 01:59:38;;;;;;;14.45;1.63;;;11.30;99.90;;;;;;4896874;29;20362;-81
2022/10/19 02:02:07;;;;;;;9.50;1.50;;;11.40;99.90;;;;;;4867902;29;20433;-79
2022/10/19 02:04:35;;;;;;;6.00;1.20;;;11.40;99.90;;;;;;4882392;29;20103;-78
2022/10/19 02:07:01;;;;;;;9.88;1.55;;;11.40;99.90;;;;;;4909596;29;20074;-80
2022/10/19 02:09:27;;;;;;;11.13;1.23;;;11.40;99.90;;;;;;4922748;29;20052;-80
2022/10/19 02:11:56;;;;;;;13.80;1.50;;;11.50;99.90;;;;;;4925057;28;20061;-82
2022/10/19 02:14:31;;;;;;;10.20;1.40;;;11.40;99.90;;;;;;4955613;28;20113;-80
2022/10/19 02:17:04;;;;;;;8.02;1.60;;;11.40;99.90;;;;;;4951237;28;20058;-77
2022/10/19 02:19:30;;;;;;;11.50;1.55;;;11.50;99.90;;;;;;4920415;29;20051;-80
2022/10/19 02:21:56;;;;;;;10.25;1.60;;;11.40;99.90;;;;;;4936099;29;20039;-79
2022/10/19 02:24:22;;;;;;;10.38;1.40;;;11.50;99.90;;;;;;5004848;28;20054;-79
2022/10/19 02:26:49;;;;;;;8.55;1.38;;;11.50;99.90;;;;;;5074263;28;20096;-77
2022/10/19 02:29:15;;;;;;;15.05;1.30;;;11.40;99.90;;;;;;5039213;28;20104;-77
2022/10/19 02:31:42;;;;;;;14.70;1.52;;;11.40;99.90;;;;;;5038241;28;20061;-80
2022/10/19 02:34:08;;;;;;;9.13;1.50;;;11.40;99.90;;;;;;5034910;28;20032;-79
2022/10/19 02:36:34;;;;;;;9.30;1.67;;;11.30;99.90;;;;;;5054421;28;20049;-81
2022/10/19 02:39:00;;;;;;;15.43;1.55;;;11.30;99.90;;;;;;5036644;28;20052;-79
2022/10/19 02:41:48;;;;;;;12.15;1.42;;;11.20;99.90;;;;;;5072638;28;20132;-80
2022/10/19 02:44:28;;;;;;;12.55;1.70;;;11.10;99.90;;;;;;5062871;28;20043;-80
2022/10/19 02:47:01;;;;;;;9.38;1.30;;;11.10;99.90;;;;;;5071256;28;20087;-81
2022/10/19 02:49:29;;;;;;;12.45;1.73;;;11.10;99.90;;;;;;5074462;28;20062;-80
2022/10/19 02:51:56;;;;;;;14.93;1.70;;;11.20;99.90;;;;;;5041778;28;20440;-80
2022/10/19 02:54:23;;;;;;;16.50;1.92;;;11.20;99.90;;;;;;5058156;28;20047;-78
2022/10/19 02:56:48;;;;;;;15.70;1.85;;;11.20;99.90;;;;;;5067658;28;20050;-77
2022/10/19 02:59:14;;;;;;;14.73;2.00;;;11.10;99.90;;;;;;5082995;28;20119;-77
2022/10/19 03:01:40;;;;;;;9.82;1.42;;;11.00;99.90;;;;;;5083171;28;20036;-78
2022/10/19 03:04:05;;;;;;;15.57;2.28;;;10.90;99.90;;;;;;5070068;28;20066;-78
2022/10/19 03:06:32;;;;;;;9.57;1.70;;;10.90;99.90;;;;;;5048582;28;20129;-76
2022/10/19 03:09:17;;;;;;;11.95;1.52;;;10.80;99.90;;;;;;5064557;28;20047;-78
2022/10/19 03:11:43;;;;;;;13.93;2.33;;;10.80;99.90;;;;;;5054551;28;20037;-81
2022/10/19 03:14:08;;;;;;;12.88;1.85;;;10.70;99.90;;;;;;5069067;28;20085;-78
2022/10/19 03:16:34;;;;;;;12.40;2.10;;;10.60;99.90;;;;;;5092528;28;20487;-79
2022/10/19 03:18:59;;;;;;;13.85;2.40;;;10.60;99.90;;;;;;5062879;28;20040;-82
2022/10/19 03:21:25;;;;;;;14.63;1.83;;;10.40;99.90;;;;;;5056456;28;20051;-80
2022/10/19 03:23:51;;;;;;;11.15;2.05;;;10.40;99.90;;;;;;5057242;28;20067;-81
2022/10/19 03:26:17;;;;;;;11.95;1.50;;;10.30;99.90;;;;;;5058123;28;20028;-77
2022/10/19 03:28:44;;;;;;;14.50;1.55;;;10.40;99.90;;;;;;5074374;28;20036;-79
2022/10/19 03:31:10;;;;;;;15.85;1.55;;;10.20;99.90;;;;;;5069270;28;20508;-80
2022/10/19 03:33:35;;;;;;;12.93;1.50;;;10.20;99.90;;;;;;5085391;28;20181;-77
2022/10/19 03:36:22;;;;;;;10.85;1.63;;;10.20;99.90;;;;;;5060601;28;20095;-78
2022/10/19 03:38:55;;;;;;;12.20;1.63;;;10.20;99.90;;;;;;5055678;28;20041;-78
2022/10/19 03:41:23;;;;;;;14.57;1.73;;;10.20;99.90;;;;;;5073222;28;20048;-79
2022/10/19 03:43:49;;;;;;;14.00;1.92;;;10.10;99.90;;;;;;5057058;28;20455;-80
2022/10/19 03:46:15;;;;;;;12.23;1.45;;;10.10;99.90;;;;;;5083552;28;20131;-80
2022/10/19 03:48:41;;;;;;;10.98;1.77;;;10.20;99.90;;;;;;5055505;28;20040;-81
2022/10/19 03:51:12;;;;;;;14.82;1.95;;;10.10;99.90;;;;;;5073439;28;20441;-80
2022/10/19 03:53:39;;;;;;;10.88;1.58;;;10.30;99.90;;;;;;5073919;28;20036;-78
2022/10/19 03:56:12;;;;;;;9.00;1.42;;;10.40;99.90;;;;;;5057899;28;20044;-80
2022/10/19 03:58:39;;;;;;;15.02;2.10;;;10.30;99.90;;;;;;5048229;28;20036;-83
2022/10/19 04:01:14;;;;;;;13.23;1.70;;;10.40;99.90;;;;;;5036815;28;20068;-81
2022/10/19 04:03:39;;;;;;;12.50;2.13;;;10.40;99.90;;;;;;5072971;28;20171;-79
2022/10/19 04:06:08;;;;;;;18.70;1.70;;;10.40;99.90;;;;;;5057691;28;20099;-80
2022/10/19 04:08:34;;;;;;;13.13;1.95;;;10.50;99.90;;;;;;5073205;28;20376;-79
2022/10/19 04:11:22;;;;;;;19.13;2.05;;;10.60;99.90;;;;;;5074401;28;20051;-80
2022/10/19 04:13:49;;;;;;;14.45;1.98;;;10.60;99.90;;;;;;5077155;28;20040;-80
2022/10/19 04:16:15;;;;;;;20.23;2.45;;;10.60;99.90;;;;;;5060884;28;20112;-82
2022/10/19 04:18:41;;;;;;;14.30;1.98;;;10.60;99.90;;;;;;5075121;28;20497;-80
2022/10/19 04:21:17;;;;;;;15.18;2.10;;;10.50;99.90;;;;;;5083892;28;20038;-77
2022/10/19 04:23:43;;;;;;;19.13;2.28;;;10.50;99.90;;;;;;5059456;28;20415;-79
2022/10/19 04:26:09;;;;;;;15.68;2.08;;;10.60;99.90;;;;;;5059798;28;20080;-83
2022/10/19 04:28:35;;;;;;;12.13;1.65;;;10.50;99.90;;;;;;5058863;28;20040;-78
2022/10/19 04:31:03;;;;;;;15.02;2.22;;;10.50;99.90;;;;;;5076332;28;20480;-80
2022/10/19 04:33:29;;;;;;;14.18;1.92;;;10.40;99.90;;;;;;5057350;28;20253;-78
2022/10/19 04:36:01;;;;;;;11.07;1.92;;;10.40;99.90;;;;;;5059457;28;20173;-81
2022/10/19 04:38:28;;;;;;;12.82;1.60;;;10.40;99.90;;;;;;5069870;28;20167;-82
2022/10/19 04:40:55;;;;;;;13.23;2.03;;;10.40;99.90;;;;;;5058957;28;20098;-79
2022/10/19 04:43:21;;;;;;;18.25;2.05;;;10.40;99.90;;;;;;5052481;28;20134;-81
2022/10/19 04:45:46;;;;;;;15.73;2.00;;;10.40;99.90;;;;;;5076544;28;20507;-79
2022/10/19 04:48:12;;;;;;;21.23;1.85;;;10.30;99.90;;;;;;5060291;28;20044;-78
2022/10/19 04:50:39;;;;;;;16.98;2.28;;;10.40;99.90;;;;;;5055844;28;20072;-81
2022/10/19 04:53:05;;;;;;;17.98;1.90;;;10.40;99.90;;;;;;5056896;28;20048;-80
2022/10/19 04:55:41;;;;;;;20.58;1.88;;;10.40;99.90;;;;;;5082024;28;20071;-76
2022/10/19 04:58:07;;;;;;;12.82;1.80;;;10.40;99.90;;;;;;5083904;28;20115;-78
2022/10/19 05:00:33;;;;;;;14.57;2.15;;;10.40;99.90;;;;;;5056906;28;20142;-77
2022/10/19 05:02:59;;;;;;;14.55;1.58;;;10.40;99.90;;;;;;5060222;28;20123;-81
2022/10/19 05:05:25;;;;;;;19.27;2.47;;;10.40;99.90;;;;;;5049936;28;20573;-81
2022/10/19 05:07:51;;;;;;;17.77;2.58;;;10.50;99.90;;;;;;5060001;28;20071;-79
2022/10/19 05:10:18;;;;;;;17.25;2.10;;;10.50;99.90;;;;;;5072074;28;20475;-80
2022/10/19 05:12:44;;;;;;;24.17;2.50;;;10.50;99.90;;;;;;5057119;28;20049;-80
2022/10/19 05:15:09;;;;;;;14.27;2.33;;;10.50;99.90;;;;;;5068085;28;20337;-83
2022/10/19 05:17:35;;;;;;;12.00;1.80;;;10.60;99.90;;;;;;5056215;28;20033;-82
2022/10/19 05:20:01;;;;;;;11.27;1.88;;;10.50;99.90;;;;;;5051271;28;20058;-78
2022/10/19 05:22:27;;;;;;;15.27;2.30;;;10.50;99.90;;;;;;5039197;28;20044;-77
2022/10/19 05:24:52;;;;;;;11.10;1.73;;;10.50;99.90;;;;;;5045931;28;20118;-76
2022/10/19 05:27:18;;;;;;;19.60;2.30;;;10.60;99.90;;;;;;5073969;28;20048;-81
2022/10/19 05:29:43;;;;;;;14.43;2.10;;;10.70;99.90;;;;;;5060418;28;20044;-79
2022/10/19 05:32:09;;;;;;;15.65;2.05;;;10.60;99.90;;;;;;5081400;28;20432;-78
2022/10/19 05:34:35;;;;;;;22.15;2.55;;;10.60;99.90;;;;;;5064965;28;20048;-76
2022/10/19 05:37:00;;;;;;;14.73;2.13;;;10.60;99.90;;;;;;5064963;28;20048;-78
2022/10/19 05:39:26;;;;;;;18.38;2.45;;;10.50;99.90;;;;;;5061995;28;20059;-81
2022/10/19 05:41:52;;;;;;;13.15;1.98;;;10.50;99.90;;;;;;5060478;28;20036;-78
2022/10/19 05:44:20;;;;;;;15.80;1.90;;;10.50;99.90;;;;;;5075150;28;20169;-80
2022/10/19 05:46:46;;;;;;;21.95;2.90;;;10.60;99.90;;;;;;5058486;28;20059;-81
2022/10/19 05:49:13;;;;;;;16.70;1.85;;;10.60;99.90;;;;;;5073635;28;20140;-79
2022/10/19 05:51:39;;;;;;;17.73;1.98;;;10.60;99.90;;;;;;5052336;28;20387;-81
2022/10/19 05:54:06;;;;;;;18.10;2.10;;;10.60;99.90;;;;;;5037945;28;20136;-78
2022/10/19 05:56:32;;;;;;;18.33;2.10;;;10.60;99.90;;;;;;5057269;28;20059;-79
2022/10/19 05:59:01;;;;;;;15.80;2.10;;;10.60;99.90;;;;;;5041315;28;20048;-78
2022/10/19 06:01:27;;;;;;;29.40;2.65;;;10.60;99.90;;;;;;5045754;28;20367;-81
2022/10/19 06:03:55;;;;;;;17.20;2.22;;;10.60;99.90;;;;;;5075017;28;20038;-82
2022/10/19 06:06:22;;;;;;;13.90;1.92;;;10.70;99.90;;;;;;5068852;28;20098;-82
2022/10/19 06:08:48;;;;;;;12.15;1.67;;;10.80;99.90;;;;;;5054354;28;20047;-80
2022/10/19 06:11:15;;;;;;;15.75;2.22;;;10.80;99.90;;;;;;5058198;28;20135;-78
2022/10/19 06:13:42;;;;;;;17.33;2.38;;;10.70;99.90;;;;;;5058409;28;20040;-80
2022/10/19 06:16:10;;;;;;;17.38;2.20;;;10.70;99.90;;;;;;5073281;28;20078;-79
2022/10/19 06:18:37;;;;;;;15.23;1.85;;;10.70;99.90;;;;;;5049046;28;20088;-77
2022/10/19 06:21:10;;;;;;;10.55;1.85;;;10.80;99.90;;;;;;5057137;28;20394;-82
2022/10/19 06:23:36;;;;;;;22.88;2.25;;;10.70;99.90;;;;;;5074401;28;20123;-79
2022/10/19 06:26:10;;;;;;;12.30;2.60;;;10.80;99.90;;;;;;5071395;28;20588;-79
2022/10/19 06:28:37;;;;;;;9.95;1.90;;;10.80;99.90;;;;;;5070526;28;20140;-81
2022/10/19 06:31:07;;;;;;;14.65;1.92;;;10.90;99.90;;;;;;5054495;28;20037;-80
2022/10/19 06:33:33;;;;;;;13.45;1.67;;;10.90;99.90;;;;;;5047842;28;20051;-77
2022/10/19 06:36:10;;;;;;;13.55;1.98;;;10.90;99.90;;;;;;5102775;28;20043;-80
2022/10/19 06:38:35;;;;;;;16.92;2.20;;;10.80;99.90;;;;;;5077805;28;20131;-80
2022/10/19 06:41:01;;;;;;;17.63;2.28;;;10.80;99.90;;;;;;5059623;28;20072;-77
2022/10/19 06:43:27;;;;;;;17.60;2.08;;;10.90;99.90;;;;;;5055512;28;20070;-77
2022/10/19 06:45:53;;;;;;;19.42;2.35;;;10.90;99.90;;;;;;5052081;28;20093;-77
2022/10/19 06:48:19;;;;;;;16.48;1.98;;;10.90;99.90;;;;;;5046201;28;20160;-80
2022/10/19 06:50:45;;;;;;;17.38;2.05;;;10.90;99.90;;;;;;5073821;28;20039;-78
2022/10/19 06:53:11;;;;;;;10.63;1.80;;;10.90;99.90;;;;;;5057711;28;20066;-78
2022/10/19 06:55:36;;;;;;;12.65;2.05;;;11.00;99.90;;;;;;5058288;28;20040;-81
2022/10/19 06:58:02;;;;;;;12.23;1.83;;;10.90;99.90;;;;;;5052195;28;20036;-80
2022/10/19 07:00:29;;;;;;;14.25;1.77;;;10.80;99.90;;;;;;5070755;28;20109;-80
2022/10/19 07:02:55;;;;;;;13.98;1.98;;;11.00;99.90;;;;;;5057733;28;20040;-79
2022/10/19 07:05:21;;;;;;;10.77;1.70;;;10.90;99.90;;;;;;5070965;28;20055;-80
2022/10/19 07:07:46;;;;;;;13.32;1.73;;;10.90;99.90;;;;;;5050997;28;20368;-77
2022/10/19 07:10:12;;;;;;;15.50;2.13;;;11.00;99.90;;;;;;5070585;28;20390;-81
2022/10/19 07:12:39;;;;;;;17.45;2.03;;;11.10;99.90;;;;;;5057436;28;20047;-78
2022/10/19 07:15:05;;;;;;;10.85;1.85;;;11.00;99.90;;;;;;5076149;28;20115;-83
2022/10/19 07:17:32;;;;;;;13.75;1.98;;;11.00;99.90;;;;;;5073949;28;20063;-79
2022/10/19 07:19:57;;;;;;;14.23;1.75;;;11.00;99.90;;;;;;5070833;28;20040;-83
2022/10/19 07:22:23;;;;;;;13.32;2.35;;;11.00;99.90;;;;;;5037468;28;20472;-79
2022/10/19 07:24:49;;;;;;;14.05;2.05;;;11.10;99.90;;;;;;5051942;28;20456;-78
2022/10/19 07:27:14;;;;;;;10.55;1.60;;;11.10;99.90;;;;;;5074054;28;20043;-80
2022/10/19 07:29:40;;;;;;;18.13;2.50;;;11.20;99.90;;;;;;5070857;28;20044;-78
2022/10/19 07:32:06;;;;;;;14.80;2.10;;;11.20;99.90;;;;;;5073731;28;20055;-84
2022/10/19 07:34:31;;;;;;;13.50;2.50;;;11.20;99.90;;;;;;5050084;28;20471;-79
2022/10/19 07:36:57;;;;;;;12.85;2.00;;;11.30;99.90;;;;;;5055276;28;20132;-77
2022/10/19 07:39:24;;;;;;;16.42;2.33;;;11.20;99.90;;;;;;5053158;28;20067;-83
2022/10/19 07:41:49;;;;;;;15.30;2.08;;;11.30;99.90;;;;;;5055461;28;20058;-81
2022/10/19 07:44:15;;;;;;;12.00;2.00;;;11.50;99.90;;;;;;5057245;28;20036;-81
2022/10/19 07:46:41;;;;;;;12.38;1.90;;;11.40;99.90;;;;;;5060820;28;20071;-80
2022/10/19 07:49:10;;;;;;;18.27;2.30;;;11.40;99.90;;;;;;5060563;28;20040;-77
2022/10/19 07:51:37;;;;;;;21.67;1.70;;;11.60;99.90;;;;;;5077885;28;20076;-80
2022/10/19 07:54:03;;;;;;;15.48;1.80;;;11.60;99.90;;;;;;5076020;28;20039;-77
2022/10/19 07:56:29;;;;;;;11.48;1.65;;;11.60;99.90;;;;;;5075458;28;20032;-79
2022/10/19 07:58:57;;;;;;;15.25;2.10;;;11.70;99.90;;;;;;5054532;28;20028;-78
2022/10/19 08:01:31;;;;;;;14.88;1.60;;;11.70;99.90;;;;;;5041720;28;20029;-78
2022/10/19 08:03:59;;;;;;;13.43;2.15;;;11.70;99.90;;;;;;5058892;28;20123;-78
2022/10/19 08:06:26;;;;;;;15.27;2.60;;;11.70;99.90;;;;;;5082321;28;20051;-80
2022/10/19 08:08:53;;;;;;;13.20;2.00;;;11.90;99.90;;;;;;5064001;28;20051;-78
2022/10/19 08:11:23;;;;;;;15.07;2.17;;;11.90;99.90;;;;;;5032045;28;20549;-77
2022/10/19 08:13:49;;;;;;;14.10;2.03;;;12.00;99.90;;;;;;5055515;28;20063;-79
2022/10/19 08:16:37;;;;;;;17.88;1.63;;;12.00;99.90;;;;;;5070175;28;20036;-80
2022/10/19 08:19:06;;;;;;;13.00;1.90;;;12.00;99.90;;;;;;5054538;28;20079;-81
2022/10/19 08:21:33;;;;;;;10.48;1.88;;;12.10;99.90;;;;;;5060940;28;20131;-84
2022/10/19 08:23:58;;;;;;;17.92;2.15;;;12.20;99.90;;;;;;5058127;28;20068;-79
2022/10/19 08:26:27;;;;;;;11.65;1.90;;;12.20;99.90;;;;;;5095448;28;20039;-80
2022/10/19 08:29:01;;;;;;;8.05;1.85;;;12.20;99.90;;;;;;5079932;28;20051;-78
2022/10/19 08:31:27;;;;;;;21.25;2.35;;;12.20;99.90;;;;;;5070663;28;20032;-78
2022/10/19 08:33:53;;;;;;;14.07;2.00;;;12.20;99.90;;;;;;5074969;28;20032;-80
2022/10/19 08:36:20;;;;;;;14.55;2.00;;;12.30;99.90;;;;;;5050268;28;20039;-77
2022/10/19 08:38:47;;;;;;;13.82;1.83;;;12.40;99.90;;;;;;5075848;28;20048;-79
2022/10/19 08:41:26;;;;;;;9.07;1.45;;;12.50;99.90;;;;;;5086425;28;20044;-80
2022/10/19 08:44:23;;;;;;;15.50;2.03;;;12.50;99.90;;;;;;5069212;28;20498;-77
2022/10/19 08:47:28;;;;;;;16.17;2.15;;;12.50;99.90;;;;;;5073430;28;20052;-79
2022/10/19 08:49:54;;;;;;;12.80;2.00;;;12.70;99.90;;;;;;4976013;28;20042;-81
2022/10/19 08:52:24;;;;;;;15.48;2.00;;;12.60;99.90;;;;;;4974806;28;20097;-78
2022/10/19 08:54:57;;;;;;;10.93;1.75;;;12.60;99.90;;;;;;4975553;28;20065;-79
2022/10/19 08:57:49;;;;;;;13.93;2.20;;;12.60;99.90;;;;;;4969482;28;20042;-76
2022/10/19 09:00:21;;;;;;;16.15;1.70;;;12.60;99.90;;;;;;4974380;28;20050;-80
2022/10/19 09:03:13;;;;;;;14.07;2.17;;;12.70;99.90;;;;;;4976488;28;20045;-79
2022/10/19 09:05:48;;;;;;;12.90;1.92;;;12.70;99.90;;;;;;4959945;28;20129;-81
2022/10/19 09:08:15;;;;;;;16.90;2.10;;;12.80;99.90;;;;;;4959684;28;20061;-75
2022/10/19 09:10:59;;;;;;;15.23;1.92;;;12.80;99.90;;;;;;4976615;28;20390;-79
2022/10/19 09:13:43;;;;;;;10.80;2.03;;;12.60;99.90;;;;;;4976331;28;20397;-77
2022/10/19 09:16:17;;;;;;;9.77;1.95;;;12.70;99.90;;;;;;4969082;28;20085;-79
2022/10/19 09:18:45;;;;;;;10.27;1.80;;;12.80;99.90;;;;;;4973238;28;20149;-83
2022/10/19 09:21:20;;;;;;;13.77;1.92;;;12.80;99.90;;;;;;4968262;28;20554;-77
2022/10/19 09:23:57;;;;;;;13.98;1.92;;;12.80;99.90;;;;;;4958519;28;20038;-76
2022/10/19 09:26:27;;;;;;;11.02;1.75;;;12.90;99.90;;;;;;4978638;28;20452;-78
2022/10/19 09:29:01;;;;;;;15.75;2.00;;;12.90;99.90;;;;;;5059454;28;20136;-82
2022/10/19 09:31:39;;;;;;;11.00;2.00;;;13.00;99.90;;;;;;5075196;28;20132;-78
2022/10/19 09:34:27;;;;;;;10.25;1.85;;;13.00;99.90;;;;;;5036322;28;20044;-77
2022/10/19 09:36:56;;;;;;;13.18;1.50;;;13.00;99.90;;;;;;5068136;28;20036;-77
2022/10/19 09:39:23;;;;;;;15.15;2.08;;;13.00;99.90;;;;;;5063932;28;20127;-77
2022/10/19 09:42:14;;;;;;;14.98;2.05;;;13.10;99.90;;;;;;5077677;28;20042;-77
2022/10/19 09:44:40;;;;;;;10.05;1.77;;;13.10;99.90;;;;;;5057244;28;20436;-76
2022/10/19 09:47:25;;;;;;;12.57;1.90;;;13.00;99.90;;;;;;5059559;28;20820;-80
2022/10/19 09:50:13;;;;;;;11.13;1.65;;;13.10;99.90;;;;;;5040996;28;20052;-80
2022/10/19 09:52:40;;;;;;;10.57;1.55;;;13.10;99.90;;;;;;5055878;28;20044;-80
2022/10/19 09:55:24;;;;;;;12.43;1.65;;;13.10;99.90;;;;;;5052449;28;20439;-77
2022/10/19 09:58:23;;;;;;;12.20;1.98;;;13.00;99.90;;;;;;5056183;28;20131;-78
2022/10/19 10:00:53;;;;;;;10.32;1.85;;;13.00;99.90;;;;;;5070053;28;20052;-80
2022/10/19 10:03:31;;;;;;;9.45;1.73;;;13.00;99.90;;;;;;5066847;28;20126;-77
2022/10/19 10:06:02;;;;;;;12.13;1.75;;;13.00;99.90;;;;;;5059388;28;20391;-78
2022/10/19 10:08:32;;;;;;;11.30;1.80;;;13.00;99.90;;;;;;5053795;28;20491;-80
2022/10/19 10:11:29;;;;;;;13.05;1.63;;;13.00;99.90;;;;;;5057024;28;20050;-81
2022/10/19 10:13:56;;;;;;;11.02;1.60;;;12.90;99.90;;;;;;5072281;28;20074;-77
2022/10/19 10:16:28;;;;;;;15.93;1.70;;;13.00;99.90;;;;;;5055132;28;20114;-77
2022/10/19 10:18:57;;;;;;;13.27;1.63;;;13.10;99.90;;;;;;5080106;28;20090;-81
2022/10/19 10:21:33;;;;;;;13.77;1.73;;;13.10;99.90;;;;;;5080044;28;20040;-77
2022/10/19 10:24:19;;;;;;;11.45;1.70;;;13.30;99.90;;;;;;5051625;28;20040;-78
2022/10/19 10:26:51;;;;;;;8.18;1.50;;;13.30;99.90;;;;;;5058098;28;20075;-77
2022/10/19 10:29:19;;;;;;;13.82;1.67;;;13.30;99.90;;;;;;5073554;28;20124;-79
2022/10/19 10:31:52;;;;;;;11.07;1.67;;;13.40;99.90;;;;;;5076588;28;20475;-80
2022/10/19 10:34:33;;;;;;;12.15;1.65;;;13.50;99.90;;;;;;5074168;28;20052;-77
2022/10/19 10:37:01;;;;;;;12.90;2.05;;;13.50;99.90;;;;;;5074533;28;20048;-80
2022/10/19 10:39:28;;;;;;;11.45;1.73;;;13.60;99.90;;;;;;5037989;28;20041;-80
2022/10/19 10:41:54;;;;;;;12.95;2.20;;;13.40;99.90;;;;;;5039194;28;20047;-81
2022/10/19 10:44:32;;;;;;;9.70;1.75;;;13.30;99.90;;;;;;5058643;28;20116;-79
2022/10/19 10:46:59;;;;;;;17.55;1.77;;;13.40;99.90;;;;;;5059465;28;20052;-79
2022/10/19 10:49:33;;;;;;;8.93;2.00;;;13.50;99.90;;;;;;5067557;28;20556;-81
2022/10/19 10:52:04;;;;;;;9.75;1.60;;;13.50;99.90;;;;;;5038578;28;20044;-79
2022/10/19 10:54:31;;;;;;;10.52;1.90;;;13.50;99.90;;;;;;5038872;28;20059;-77
2022/10/19 10:57:19;;;;;;;9.65;1.67;;;13.50;99.90;;;;;;5036699;28;20510;-78
2022/10/19 10:59:57;;;;;;;12.38;1.92;;;13.60;99.90;;;;;;5070148;28;20063;-80
2022/10/19 11:02:39;;;;;;;9.63;1.63;;;13.70;99.90;;;;;;5038856;28;20045;-79
2022/10/19 11:05:17;;;;;;;18.80;2.20;;;13.70;99.90;;;;;;5051322;28;20050;-77
2022/10/19 11:07:46;;;;;;;14.68;2.22;;;13.70;99.90;;;;;;5042337;28;20388;-78
2022/10/19 11:10:21;;;;;;;11.50;1.58;;;13.80;99.90;;;;;;5058312;28;20503;-80
2022/10/19 11:12:57;;;;;;;14.75;2.00;;;13.90;99.90;;;;;;5074593;28;20398;-79
2022/10/19 11:15:30;;;;;;;15.25;2.08;;;13.90;99.90;;;;;;5061573;28;20040;-75
2022/10/19 11:18:15;;;;;;;12.60;1.80;;;13.90;99.90;;;;;;5077039;28;20043;-81
2022/10/19 11:20:49;;;;;;;10.13;2.00;;;14.10;99.90;;;;;;5074940;28;20046;-80
2022/10/19 11:23:25;;;;;;;11.82;1.63;;;13.90;99.90;;;;;;5059818;28;20052;-82
2022/10/19 11:26:00;;;;;;;10.27;1.70;;;13.90;99.90;;;;;;5089485;28;20427;-78
2022/10/19 11:28:52;;;;;;;;;;;14.00;99.90;;;;;;5098574;28;20032;-81
2022/10/19 11:31:47;;;;;;;10.70;1.75;;;13.90;99.90;;;;;;5072472;28;19955;-78
2022/10/19 11:34:47;;;;;;;10.95;1.90;;;14.00;99.90;;;;;;5061401;28;20050;-76
2022/10/19 11:37:47;;;;;;;9.50;1.90;;;14.30;99.90;;;;;;5059846;28;20123;-80
2022/10/19 11:40:25;;;;;;;12.68;1.70;;;14.10;99.90;;;;;;5061062;28;20044;-80
2022/10/19 11:43:03;;;;;;;14.15;1.90;;;14.10;99.90;;;;;;5077755;28;20036;-82
2022/10/19 11:45:41;;;;;;;11.35;1.80;;;14.00;99.90;;;;;;5059122;28;20110;-77
2022/10/19 11:48:34;;;;;;;8.48;1.60;;;14.20;99.90;;;;;;5062264;28;20092;-79
2022/10/19 11:51:30;;;;;;;8.90;1.50;;;14.30;99.90;;;;;;5078926;28;20059;-79
2022/10/19 11:54:24;;;;;;;13.55;2.13;;;14.40;99.90;;;;;;5056690;28;20049;-81
2022/10/19 11:57:06;;;;;;;9.43;1.42;;;14.10;99.90;;;;;;5069386;28;20036;-83
2022/10/19 12:00:07;;;;;;;12.60;1.67;;;13.70;99.90;;;;;;5077445;28;20054;-79
2022/10/19 12:02:54;;;;;;;9.73;1.60;;;13.90;99.90;;;;;;4977296;28;20050;-81
2022/10/19 12:05:48;;;;;;;12.18;1.98;;;13.90;99.90;;;;;;4974340;28;20049;-79
2022/10/19 12:08:49;;;;;;;8.98;2.15;;;13.80;99.90;;;;;;4903826;29;20130;-81
2022/10/19 12:11:17;;;;;;;12.02;1.52;;;14.10;99.90;;;;;;4916670;29;20167;-78
2022/10/19 12:13:51;;;;;;;8.23;1.73;;;14.10;99.90;;;;;;4902335;29;20071;-81
2022/10/19 12:16:19;;;;;;;9.25;1.58;;;14.10;99.90;;;;;;4905121;29;20044;-80
2022/10/19 12:18:49;;;;;;;11.48;1.90;;;14.20;99.90;;;;;;4902996;29;20115;-77
2022/10/19 12:21:28;;;;;;;15.77;1.92;;;14.10;99.90;;;;;;4916535;29;20056;-77
2022/10/19 12:23:57;;;;;;;9.93;1.58;;;14.20;99.90;;;;;;4937406;29;20055;-78
2022/10/19 12:26:25;;;;;;;7.95;1.52;;;14.20;99.90;;;;;;4925266;29;20504;-77
2022/10/19 12:28:57;;;;;;;11.35;1.98;;;14.10;99.90;;;;;;4938973;29;20103;-77
2022/10/19 12:31:25;;;;;;;16.35;2.20;;;14.00;99.90;;;;;;4919148;29;20061;-78
2022/10/19 12:34:08;;;;;;;9.43;1.73;;;14.10;99.90;;;;;;4914414;29;20048;-80
2022/10/19 12:37:05;;;;;;;11.45;1.85;;;14.20;99.90;;;;;;4920388;29;20043;-80
2022/10/19 12:39:55;;;;;;;8.68;1.65;;;14.10;99.90;;;;;;4868158;29;20059;-78
2022/10/19 12:42:30;;;;;;;12.18;1.45;;;14.10;99.90;;;;;;4920116;29;20135;-79
2022/10/19 12:45:07;;;;;;;8.85;1.90;;;14.10;99.90;;;;;;4941718;28;20430;-81
2022/10/19 12:47:33;;;;;;;16.27;2.10;;;13.80;99.90;;;;;;4982312;28;20522;-78
2022/10/19 12:50:00;;;;;;;9.57;1.75;;;13.70;99.90;;;;;;4945093;28;20129;-80
2022/10/19 12:52:48;;;;;;;9.30;1.85;;;13.70;99.90;;;;;;4983566;28;20170;-77
2022/10/19 12:55:14;;;;;;;9.18;2.03;;;13.70;99.90;;;;;;4976402;28;20050;-79
2022/10/19 12:57:42;;;;;;;9.63;1.80;;;13.70;99.90;;;;;;4960455;28;20073;-79
2022/10/19 13:00:20;;;;;;;8.75;1.88;;;13.80;99.90;;;;;;4960285;28;20081;-80
2022/10/19 13:02:54;;;;;;;10.20;2.03;;;13.90;99.90;;;;;;4976160;28;20049;-77